Time;durP1;ratioP1;P1;durP2;ratioP2;P2;SDS_P1;SDS_P2;PMS_P1;PMS_P2;Temp;Humidity;BMP_temperature;BMP_pressure;BME280_temperature;BME280_humidity;BME280_pressure;Samples;Min_cycle;Max_cycle;Signal;HPM_P1;HPM_P2
2023/07/15 00:01:53;;;;;;;5.05;2.75;;;;;;;20.57;100.00;98232.84;5018458;28;20028;-76
2023/07/15 00:04:19;;;;;;;6.72;2.80;;;;;;;20.55;100.00;98232.28;5026820;28;20017;-76
2023/07/15 00:06:44;;;;;;;5.28;2.78;;;;;;;20.48;100.00;98229.00;5016201;28;20037;-75
2023/07/15 00:09:10;;;;;;;6.63;2.60;;;;;;;20.46;100.00;98226.53;5013634;28;20022;-75
2023/07/15 00:11:39;;;;;;;7.20;3.25;;;;;;;20.43;100.00;98243.56;5015356;28;20026;-76
2023/07/15 00:14:14;;;;;;;6.13;3.38;;;;;;;20.27;100.00;98233.75;5012467;28;20025;-76
2023/07/15 00:16:41;;;;;;;8.32;2.60;;;;;;;20.18;100.00;98239.00;5028013;28;20096;-75
2023/07/15 00:19:06;;;;;;;6.40;2.97;;;;;;;20.17;100.00;98242.03;5013861;28;20032;-73
2023/07/15 00:21:32;;;;;;;5.72;2.97;;;;;;;20.08;100.00;98236.28;5028013;28;20033;-74
2023/07/15 00:23:58;;;;;;;6.07;3.20;;;;;;;20.00;100.00;98243.16;5012857;28;20026;-74
2023/07/15 00:26:30;;;;;;;6.97;2.83;;;;;;;19.93;100.00;98248.94;5021067;28;20038;-74
2023/07/15 00:28:57;;;;;;;7.72;2.60;;;;;;;20.00;100.00;98242.34;5006525;28;20026;-74
2023/07/15 00:31:23;;;;;;;4.05;2.40;;;;;;;19.93;100.00;98237.97;5012814;28;20026;-74
2023/07/15 00:33:49;;;;;;;5.15;3.10;;;;;;;19.86;100.00;98236.63;5026244;28;20080;-74
2023/07/15 00:36:16;;;;;;;3.92;2.40;;;;;;;19.86;100.00;98248.44;5029931;28;20032;-74
2023/07/15 00:38:42;;;;;;;7.78;2.30;;;;;;;19.77;100.00;98235.53;5018821;28;20025;-74
2023/07/15 00:41:32;;;;;;;3.83;2.33;;;;;;;19.79;100.00;98250.63;5016044;28;20021;-74
2023/07/15 00:44:03;;;;;;;5.13;2.70;;;;;;;19.82;100.00;98249.25;5009283;28;20042;-75
2023/07/15 00:46:47;;;;;;;4.97;2.95;;;;;;;19.72;100.00;98247.34;5020202;28;20032;-74
2023/07/15 00:49:20;;;;;;;5.20;2.50;;;;;;;19.49;100.00;98241.31;5014946;28;20036;-75
2023/07/15 00:51:48;;;;;;;4.80;2.72;;;;;;;19.43;100.00;98250.63;5026156;28;20022;-74
2023/07/15 00:54:14;;;;;;;2.97;2.10;;;;;;;19.42;100.00;98248.97;5018934;28;20018;-74
2023/07/15 00:56:41;;;;;;;6.60;2.55;;;;;;;19.28;100.00;98245.13;5021477;28;20471;-75
2023/07/15 00:59:09;;;;;;;4.93;2.47;;;;;;;19.18;100.00;98236.91;5013538;28;20029;-75
2023/07/15 01:01:35;;;;;;;4.70;2.80;;;;;;;19.13;100.00;98247.88;5024585;28;20030;-74
2023/07/15 01:04:01;;;;;;;5.93;2.50;;;;;;;19.19;100.00;98253.09;5011930;28;20097;-75
2023/07/15 01:06:26;;;;;;;7.03;2.60;;;;;;;19.20;100.00;98262.13;5021803;28;20030;-74
2023/07/15 01:08:52;;;;;;;4.38;2.92;;;;;;;19.05;100.00;98241.84;5018439;28;20109;-74
2023/07/15 01:11:17;;;;;;;4.13;2.80;;;;;;;18.99;100.00;98253.06;5024307;28;20501;-74
2023/07/15 01:13:42;;;;;;;6.85;2.92;;;;;;;18.95;100.00;98241.00;5016409;28;20025;-75
2023/07/15 01:16:08;;;;;;;4.80;2.40;;;;;;;18.96;100.00;98264.56;5015601;28;20042;-74
2023/07/15 01:18:33;;;;;;;7.32;3.00;;;;;;;18.87;100.00;98255.25;5018499;28;20054;-75
2023/07/15 01:20:59;;;;;;;4.20;2.60;;;;;;;18.83;100.00;98263.16;5012116;28;20034;-75
2023/07/15 01:23:26;;;;;;;7.13;3.17;;;;;;;18.74;100.00;98257.38;5011802;28;20498;-75
2023/07/15 01:25:51;;;;;;;5.53;2.38;;;;;;;18.74;100.00;98256.53;5012306;28;20472;-75
2023/07/15 01:28:16;;;;;;;7.53;2.95;;;;;;;18.67;100.00;98255.97;5012169;28;20030;-76
2023/07/15 01:30:41;;;;;;;4.13;2.38;;;;;;;18.79;100.00;98256.59;5010922;28;20030;-75
2023/07/15 01:33:07;;;;;;;3.75;2.13;;;;;;;18.85;100.00;98252.75;5008844;28;20033;-75
2023/07/15 01:35:32;;;;;;;3.47;2.22;;;;;;;18.93;100.00;98251.41;5030534;28;20029;-74
2023/07/15 01:37:57;;;;;;;8.85;2.60;;;;;;;18.88;100.00;98241.25;5014256;28;20033;-75
2023/07/15 01:40:23;;;;;;;7.03;2.60;;;;;;;18.99;100.00;98247.56;5004905;28;20049;-75
2023/07/15 01:42:48;;;;;;;4.72;2.33;;;;;;;18.89;100.00;98242.91;5004345;28;20033;-74
2023/07/15 01:45:13;;;;;;;5.65;2.50;;;;;;;18.89;100.00;98255.78;5009565;28;20084;-75
2023/07/15 01:47:39;;;;;;;6.28;2.65;;;;;;;18.77;100.00;98251.38;5007073;28;20392;-75
2023/07/15 01:50:05;;;;;;;3.75;2.25;;;;;;;18.73;100.00;98241.19;5003159;28;20029;-75
2023/07/15 01:52:31;;;;;;;4.57;2.28;;;;;;;18.73;100.00;98243.91;5011961;28;20391;-75
2023/07/15 01:54:56;;;;;;;4.60;2.45;;;;;;;18.70;100.00;98245.28;5014377;28;20042;-74
2023/07/15 01:57:22;;;;;;;5.10;2.30;;;;;;;18.69;100.00;98237.34;5016046;28;20030;-75
2023/07/15 01:59:47;;;;;;;2.90;2.00;;;;;;;18.61;100.00;98235.97;5004994;28;20021;-75
2023/07/15 02:02:13;;;;;;;5.25;2.60;;;;;;;18.54;100.00;98225.25;5026053;28;20372;-74
2023/07/15 02:04:38;;;;;;;5.40;2.15;;;;;;;18.61;100.00;98245.00;5014332;28;20395;-75
2023/07/15 02:07:04;;;;;;;3.55;2.10;;;;;;;18.56;100.00;98236.75;5009173;28;20147;-75
2023/07/15 02:09:29;;;;;;;5.45;2.15;;;;;;;18.67;100.00;98237.59;5008375;28;20034;-75
2023/07/15 02:11:55;;;;;;;3.45;2.33;;;;;;;18.70;100.00;98233.50;5006972;28;20066;-75
2023/07/15 02:14:21;;;;;;;3.00;1.83;;;;;;;18.60;100.00;98221.44;4998942;28;20044;-74
2023/07/15 02:16:46;;;;;;;4.78;2.30;;;;;;;18.60;100.00;98226.91;5007545;28;20360;-75
2023/07/15 02:19:11;;;;;;;4.63;2.30;;;;;;;18.48;100.00;98226.31;5012426;28;20032;-73
2023/07/15 02:21:36;;;;;;;4.00;2.50;;;;;;;18.48;100.00;98223.59;5028295;28;20029;-75
2023/07/15 02:24:02;;;;;;;4.72;2.47;;;;;;;18.45;100.00;98231.53;5012971;28;20029;-75
2023/07/15 02:26:28;;;;;;;7.90;2.60;;;;;;;18.60;100.00;98224.19;5003933;28;20494;-75
2023/07/15 02:28:54;;;;;;;4.95;2.63;;;;;;;18.62;100.00;98215.66;5009651;28;20076;-75
2023/07/15 02:31:20;;;;;;;3.72;2.10;;;;;;;18.66;100.00;98211.31;5012321;28;20040;-74
2023/07/15 02:33:45;;;;;;;5.05;2.88;;;;;;;18.66;100.00;98211.31;5014885;28;20022;-74
2023/07/15 02:36:11;;;;;;;3.33;2.30;;;;;;;18.58;100.00;98204.44;5015514;28;20021;-75
2023/07/15 02:38:36;;;;;;;4.70;2.53;;;;;;;18.59;100.00;98217.03;5008797;28;20030;-75
2023/07/15 02:41:02;;;;;;;3.70;2.40;;;;;;;18.43;100.00;98201.66;5004474;28;20057;-75
2023/07/15 02:43:27;;;;;;;5.80;2.17;;;;;;;18.39;100.00;98201.38;5006734;28;20046;-75
2023/07/15 02:45:53;;;;;;;3.75;2.28;;;;;;;18.38;100.00;98205.19;5013536;28;20120;-75
2023/07/15 02:48:21;;;;;;;4.50;2.10;;;;;;;18.32;100.00;98216.41;5004511;28;20026;-75
2023/07/15 02:50:56;;;;;;;5.35;2.40;;;;;;;18.33;100.00;98218.03;5011427;28;20537;-75
2023/07/15 02:53:22;;;;;;;4.65;2.38;;;;;;;18.34;100.00;98211.50;5021434;28;20480;-75
2023/07/15 02:55:48;;;;;;;3.15;2.00;;;;;;;18.26;100.00;98206.50;5018466;28;20033;-75
2023/07/15 02:58:13;;;;;;;4.22;2.15;;;;;;;18.38;100.00;98210.66;5030318;28;20021;-75
2023/07/15 03:00:39;;;;;;;4.10;1.95;;;;;;;18.26;100.00;98201.88;5033383;28;20013;-75
2023/07/15 03:03:04;;;;;;;4.28;2.42;;;;;;;18.28;100.00;98207.06;5041923;28;20108;-74
2023/07/15 03:05:29;;;;;;;4.18;1.90;;;;;;;18.43;100.00;98222.75;5040303;28;20022;-75
2023/07/15 03:07:55;;;;;;;3.00;2.20;;;;;;;18.37;100.00;98209.03;5026910;28;20057;-74
2023/07/15 03:10:20;;;;;;;3.35;1.95;;;;;;;18.42;100.00;98219.19;5041901;28;20029;-75
2023/07/15 03:12:49;;;;;;;6.00;2.17;;;;;;;18.51;100.00;98217.56;5026635;28;20054;-75
2023/07/15 03:15:15;;;;;;;3.63;2.05;;;;;;;18.61;100.00;98216.78;5010881;28;20101;-75
2023/07/15 03:17:41;;;;;;;5.80;1.88;;;;;;;18.62;100.00;98213.75;5025277;28;20571;-74
2023/07/15 03:20:19;;;;;;;4.22;2.00;;;;;;;18.77;100.00;98226.69;5013059;28;20034;-75
2023/07/15 03:22:45;;;;;;;4.97;2.07;;;;;;;18.78;100.00;98213.81;5006172;28;20030;-75
2023/07/15 03:25:11;;;;;;;2.95;2.10;;;;;;;18.68;100.00;98211.03;5006802;28;20030;-75
2023/07/15 03:27:37;;;;;;;2.90;1.98;;;;;;;18.64;100.00;98218.16;5006359;28;20448;-75
2023/07/15 03:30:02;;;;;;;5.45;2.30;;;;;;;18.60;100.00;98213.22;5002279;28;20042;-75
2023/07/15 03:32:27;;;;;;;2.95;2.08;;;;;;;18.51;100.00;98206.59;5014029;28;20034;-75
2023/07/15 03:34:53;;;;;;;4.05;2.25;;;;;;;18.40;100.00;98203.00;5029059;28;20018;-75
2023/07/15 03:37:19;;;;;;;3.05;2.20;;;;;;;18.37;100.00;98214.50;5007110;28;20081;-75
2023/07/15 03:39:44;;;;;;;4.25;1.95;;;;;;;18.43;100.00;98223.56;4997520;28;20041;-74
2023/07/15 03:42:09;;;;;;;2.63;2.22;;;;;;;18.35;100.00;98202.19;5020586;28;20026;-74
2023/07/15 03:44:35;;;;;;;3.15;1.95;;;;;;;18.41;100.00;98220.25;5001897;28;20025;-75
2023/07/15 03:47:00;;;;;;;3.70;2.20;;;;;;;18.31;100.00;98212.84;5009292;28;20038;-75
2023/07/15 03:49:26;;;;;;;5.18;2.00;;;;;;;18.40;100.00;98219.44;5015135;28;20028;-74
2023/07/15 03:51:51;;;;;;;6.60;2.20;;;;;;;18.45;100.00;98215.91;5008020;28;20034;-74
2023/07/15 03:54:17;;;;;;;2.40;2.00;;;;;;;18.49;100.00;98221.66;5014939;28;20028;-75
2023/07/15 03:56:42;;;;;;;3.15;1.95;;;;;;;18.52;100.00;98221.13;5019302;28;20120;-74
2023/07/15 03:59:07;;;;;;;5.07;2.38;;;;;;;18.56;100.00;98217.56;5028923;28;20391;-75
2023/07/15 04:01:35;;;;;;;4.47;2.70;;;;;;;18.67;100.00;98223.09;5018415;28;20030;-74
2023/07/15 04:04:04;;;;;;;3.50;2.20;;;;;;;18.61;100.00;98220.34;5046156;28;20028;-74
2023/07/15 04:06:33;;;;;;;;;;;;;;;18.66;100.00;98226.94;5029911;28;20519;-75
2023/07/15 04:08:58;;;;;;;4.57;1.90;;;;;;;18.68;100.00;98214.59;5044230;28;19917;-74
2023/07/15 04:11:23;;;;;;;3.42;2.13;;;;;;;18.74;100.00;98212.69;5041040;28;20017;-78
2023/07/15 04:13:48;;;;;;;3.78;2.20;;;;;;;18.85;100.00;98202.59;5040894;28;20269;-76
2023/07/15 04:16:14;;;;;;;3.30;1.88;;;;;;;19.09;100.00;98213.88;5035816;28;20030;-78
2023/07/15 04:18:39;;;;;;;5.35;2.10;;;;;;;19.22;100.00;98214.13;5026607;28;20471;-73
2023/07/15 04:21:06;;;;;;;5.45;1.88;;;;;;;19.33;100.00;98203.16;5017321;28;20034;-74
2023/07/15 04:23:31;;;;;;;4.25;2.25;;;;;;;19.34;100.00;98191.94;5010402;28;20041;-77
2023/07/15 04:25:57;;;;;;;4.07;2.72;;;;;;;19.43;100.00;98192.19;5016198;28;20014;-78
2023/07/15 04:28:22;;;;;;;9.40;2.53;;;;;;;19.44;100.00;98182.84;5032971;28;20030;-78
2023/07/15 04:30:47;;;;;;;6.28;1.85;;;;;;;19.48;100.00;98184.78;5016418;28;20022;-78
2023/07/15 04:33:15;;;;;;;2.60;1.63;;;;;;;19.59;100.00;98198.47;5015552;28;20472;-78
2023/07/15 04:35:40;;;;;;;2.92;1.92;;;;;;;19.65;100.00;98191.91;5014320;28;20061;-79
2023/07/15 04:38:06;;;;;;;3.42;2.15;;;;;;;19.65;100.00;98173.50;5014445;28;20479;-78
2023/07/15 04:40:31;;;;;;;2.80;1.73;;;;;;;19.77;100.00;98177.91;5029957;28;20032;-78
2023/07/15 04:42:56;;;;;;;2.53;1.63;;;;;;;19.81;100.00;98170.75;5014658;28;20025;-78
2023/07/15 04:45:22;;;;;;;2.72;1.70;;;;;;;19.92;100.00;98162.19;5014632;28;20376;-77
2023/07/15 04:47:47;;;;;;;6.15;1.80;;;;;;;20.06;100.00;98172.56;5013344;28;20026;-78
2023/07/15 04:50:13;;;;;;;4.68;2.00;;;;;;;20.10;100.00;98163.50;5029493;28;20122;-77
2023/07/15 04:52:38;;;;;;;4.38;2.00;;;;;;;20.22;100.00;98174.16;5012361;28;20029;-77
2023/07/15 04:55:04;;;;;;;3.97;2.05;;;;;;;20.29;100.00;98168.38;5014489;28;20108;-79
2023/07/15 04:57:29;;;;;;;2.72;1.90;;;;;;;20.43;100.00;98160.31;5018028;28;20522;-75
2023/07/15 04:59:54;;;;;;;4.75;2.13;;;;;;;20.63;100.00;98176.72;5007855;28;20091;-77
2023/07/15 05:02:20;;;;;;;3.55;1.80;;;;;;;20.75;100.00;98168.97;5001225;28;20109;-77
2023/07/15 05:04:45;;;;;;;2.72;1.60;;;;;;;20.97;100.00;98179.50;5030322;28;20014;-76
2023/07/15 05:07:11;;;;;;;3.72;1.65;;;;;;;21.17;100.00;98181.28;5014319;28;20037;-77
2023/07/15 05:09:36;;;;;;;4.18;2.00;;;;;;;21.26;100.00;98173.22;5017793;28;20495;-77
2023/07/15 05:12:02;;;;;;;5.85;2.13;;;;;;;21.45;100.00;98193.44;5019457;28;20032;-78
2023/07/15 05:14:27;;;;;;;4.60;1.80;;;;;;;21.60;100.00;98188.91;5035478;28;20041;-78
2023/07/15 05:16:55;;;;;;;3.47;1.73;;;;;;;21.67;100.00;98181.13;5015243;28;20029;-78
2023/07/15 05:19:21;;;;;;;3.58;1.83;;;;;;;21.79;100.00;98181.53;5019184;28;20029;-77
2023/07/15 05:21:46;;;;;;;2.75;1.55;;;;;;;21.93;100.00;98167.91;5028654;28;20018;-77
2023/07/15 05:24:12;;;;;;;2.72;1.60;;;;;;;22.27;100.00;98197.31;5021500;28;20057;-74
2023/07/15 05:26:37;;;;;;;3.90;1.65;;;;;;;22.47;100.00;98183.22;5025021;28;20022;-74
2023/07/15 05:29:03;;;;;;;3.65;2.00;;;;;;;22.70;100.00;98195.31;5010161;28;20026;-77
2023/07/15 05:31:28;;;;;;;5.43;1.80;;;;;;;;;;5032297;28;20068;-74
2023/07/15 05:33:54;;;;;;;2.87;1.70;;;;;;;22.87;100.00;98199.50;5017483;28;20025;-75
2023/07/15 05:36:19;;;;;;;3.40;1.67;;;;;;;22.97;100.00;98183.63;5028334;28;20290;-77
2023/07/15 05:38:44;;;;;;;2.92;1.88;;;;;;;23.03;100.00;98187.16;5040317;28;20528;-76
2023/07/15 05:41:13;;;;;;;3.63;1.95;;;;;;;23.18;100.00;98183.31;5021118;28;20018;-76
2023/07/15 05:43:39;;;;;;;;;;;;;;;23.34;100.00;98187.47;5013947;28;20018;-76
2023/07/15 05:46:04;;;;;;;3.57;1.63;;;;;;;23.46;100.00;98183.41;5011590;28;19917;-77
2023/07/15 05:48:31;;;;;;;4.95;1.63;;;;;;;23.61;100.00;98183.16;5010267;28;20280;-76
2023/07/15 05:50:56;;;;;;;4.03;1.73;;;;;;;23.82;100.00;98194.66;5026202;28;20025;-77
2023/07/15 05:53:21;;;;;;;3.38;1.50;;;;;;;23.93;100.00;98192.53;5009996;28;20485;-73
2023/07/15 05:55:47;;;;;;;6.30;1.58;;;;;;;24.19;100.00;98190.06;5010360;28;20026;-72
2023/07/15 05:58:12;;;;;;;4.13;1.73;;;;;;;24.45;100.00;98184.84;5003328;28;20029;-72
2023/07/15 06:00:39;;;;;;;4.43;1.92;;;;;;;24.69;100.00;98196.47;5016913;28;20052;-72
2023/07/15 06:03:05;;;;;;;2.53;1.50;;;;;;;24.94;100.00;98194.25;5016754;28;20053;-72
2023/07/15 06:05:30;;;;;;;2.22;1.58;;;;;;;25.16;100.00;98187.16;5018311;28;20018;-72
2023/07/15 06:07:56;;;;;;;5.07;1.80;;;;;;;25.38;100.00;98198.19;5012130;28;20030;-76
2023/07/15 06:10:21;;;;;;;5.32;1.63;;;;;;;25.48;100.00;98183.28;5013814;28;20108;-75
2023/07/15 06:12:47;;;;;;;2.05;1.52;;;;;;;25.80;100.00;98182.16;5013555;28;20032;-75
2023/07/15 06:15:12;;;;;;;2.92;1.67;;;;;;;26.11;100.00;98182.16;5004340;28;20029;-75
2023/07/15 06:17:38;;;;;;;2.70;1.80;;;;;;;26.41;100.00;98179.66;5009175;28;20054;-75
2023/07/15 06:20:04;;;;;;;4.40;1.48;;;;;;;26.61;100.00;98173.50;5011053;28;20038;-75
2023/07/15 06:22:29;;;;;;;3.53;1.80;;;;;;;26.93;100.00;98174.16;5009391;28;20036;-75
2023/07/15 06:24:55;;;;;;;3.28;1.65;;;;;;;27.21;100.00;98174.69;5014402;28;20027;-74
2023/07/15 06:27:20;;;;;;;3.05;1.58;;;;;;;27.44;92.00;98163.38;4994487;28;20093;-75
2023/07/15 06:29:47;;;;;;;4.25;1.50;;;;;;;27.58;86.68;98150.09;5005108;28;20561;-76
2023/07/15 06:32:12;;;;;;;3.95;1.58;;;;;;;27.66;84.14;98157.56;5029200;28;20065;-75
2023/07/15 06:34:38;;;;;;;3.38;1.55;;;;;;;27.61;82.21;98132.75;5044883;28;20029;-79
2023/07/15 06:37:03;;;;;;;2.67;1.40;;;;;;;28.07;80.93;98142.25;5051830;28;20033;-78
2023/07/15 06:39:29;;;;;;;2.92;1.40;;;;;;;28.41;78.64;98145.97;5073319;28;20036;-79
2023/07/15 06:41:54;;;;;;;2.38;1.42;;;;;;;28.50;75.17;98120.91;5043439;28;20025;-78
2023/07/15 06:44:19;;;;;;;2.42;1.45;;;;;;;29.25;72.63;98127.31;5035261;28;20026;-82
2023/07/15 06:46:45;;;;;;;6.13;1.58;;;;;;;29.95;68.30;98125.72;5029717;28;20030;-83
2023/07/15 06:49:10;;;;;;;2.78;1.58;;;;;;;31.32;63.68;98132.34;5048890;28;20040;-86
2023/07/15 06:51:35;;;;;;;4.13;1.52;;;;;;;33.39;56.18;98125.25;5026962;28;20030;-81
2023/07/15 06:54:01;;;;;;;4.03;1.77;;;;;;;35.17;50.04;98124.88;5046863;28;20026;-84
2023/07/15 06:56:27;;;;;;;2.38;1.30;;;;;;;36.76;46.60;98126.72;5038314;28;20014;-84
2023/07/15 06:58:53;;;;;;;2.17;1.23;;;;;;;37.55;44.03;98129.06;5045944;28;20030;-83
2023/07/15 07:01:18;;;;;;;3.10;1.33;;;;;;;37.65;42.34;98133.91;5033215;28;20022;-82
2023/07/15 07:03:45;;;;;;;16.23;2.05;;;;;;;37.28;42.01;98127.34;5020417;28;20030;-83
2023/07/15 07:06:10;;;;;;;2.85;1.50;;;;;;;38.35;40.32;98137.97;5032883;28;20026;-84
2023/07/15 07:08:36;;;;;;;2.08;1.20;;;;;;;37.71;41.04;98129.50;5039320;28;20022;-82
2023/07/15 07:11:02;;;;;;;2.67;1.40;;;;;;;36.90;41.67;98139.25;5017057;28;20032;-82
2023/07/15 07:13:27;;;;;;;3.65;1.35;;;;;;;37.61;40.67;98128.25;5020319;28;20524;-81
2023/07/15 07:15:57;;;;;;;2.20;1.48;;;;;;;40.03;38.52;98127.19;5016921;28;20038;-74
2023/07/15 07:18:22;;;;;;;4.78;1.55;;;;;;;40.68;37.03;98116.88;5011548;28;20025;-74
2023/07/15 07:20:47;;;;;;;2.72;1.60;;;;;;;40.61;36.43;98125.47;5009437;28;20117;-74
2023/07/15 07:23:12;;;;;;;2.57;1.37;;;;;;;41.49;35.43;98121.94;5016442;28;20096;-72
2023/07/15 07:25:40;;;;;;;2.50;1.65;;;;;;;41.10;35.49;98122.50;5018176;28;20761;-73
2023/07/15 07:28:06;;;;;;;2.78;1.33;;;;;;;42.42;34.46;98119.69;5018147;28;20479;-74
2023/07/15 07:30:31;;;;;;;2.40;1.25;;;;;;;42.35;34.37;98120.63;5013664;28;20087;-73
2023/07/15 07:32:56;;;;;;;2.25;1.45;;;;;;;43.59;33.05;98120.59;5012410;28;20034;-73
2023/07/15 07:35:22;;;;;;;1.65;1.40;;;;;;;42.88;33.04;98124.50;5009495;28;20056;-74
2023/07/15 07:37:49;;;;;;;4.20;1.38;;;;;;;42.28;34.04;98119.94;5015005;28;20458;-73
2023/07/15 07:40:14;;;;;;;3.78;1.60;;;;;;;41.96;33.59;98130.63;5008721;28;20096;-73
2023/07/15 07:42:40;;;;;;;3.38;1.48;;;;;;;42.95;32.60;98126.41;5011423;28;20435;-72
2023/07/15 07:45:12;;;;;;;3.33;1.30;;;;;;;42.77;32.97;98123.94;5013150;28;20026;-73
2023/07/15 07:47:38;;;;;;;2.20;1.60;;;;;;;43.25;32.49;98128.22;5007939;28;20026;-72
2023/07/15 07:50:03;;;;;;;4.17;1.60;;;;;;;43.50;32.00;98135.44;5015229;28;20129;-72
2023/07/15 07:52:29;;;;;;;2.05;1.33;;;;;;;43.67;31.30;98128.53;5009861;28;20343;-73
2023/07/15 07:54:54;;;;;;;4.63;1.40;;;;;;;43.20;31.08;98125.09;5013217;28;20045;-72
2023/07/15 07:57:19;;;;;;;2.37;1.47;;;;;;;43.28;31.13;98120.84;5005562;28;20292;-73
2023/07/15 07:59:44;;;;;;;2.30;1.60;;;;;;;42.03;31.39;98116.28;5015090;28;20403;-73
2023/07/15 08:02:10;;;;;;;1.88;1.45;;;;;;;41.94;31.79;98118.88;5010299;28;20292;-73
2023/07/15 08:04:35;;;;;;;2.75;1.60;;;;;;;41.26;32.66;98122.66;4998117;28;20477;-73
2023/07/15 08:07:00;;;;;;;2.07;1.23;;;;;;;41.24;32.79;98124.31;5011856;28;20103;-73
2023/07/15 08:09:26;;;;;;;2.05;1.30;;;;;;;41.00;33.33;98118.53;5018154;28;20280;-73
2023/07/15 08:11:51;;;;;;;2.20;1.25;;;;;;;40.52;33.59;98116.63;5015778;28;20432;-73
2023/07/15 08:14:17;;;;;;;2.58;1.45;;;;;;;41.62;33.38;98125.03;5005425;28;20037;-73
2023/07/15 08:16:43;;;;;;;2.30;1.35;;;;;;;41.72;32.36;98121.22;5018479;28;20037;-73
2023/07/15 08:19:08;;;;;;;3.25;1.60;;;;;;;40.82;32.41;98141.47;5013603;28;20026;-73
2023/07/15 08:21:34;;;;;;;4.65;1.63;;;;;;;40.06;33.20;98117.84;5012801;28;20036;-73
2023/07/15 08:23:59;;;;;;;2.67;1.30;;;;;;;41.70;32.30;98117.22;5012618;28;20132;-73
2023/07/15 08:26:25;;;;;;;3.30;1.50;;;;;;;42.25;31.56;98116.72;5013937;28;20112;-73
2023/07/15 08:28:50;;;;;;;3.47;1.50;;;;;;;43.72;30.51;98112.97;5013960;28;20034;-72
2023/07/15 08:31:16;;;;;;;2.85;1.50;;;;;;;44.41;30.05;98110.03;5019516;28;20034;-73
2023/07/15 08:33:42;;;;;;;4.80;1.50;;;;;;;44.52;29.30;98113.41;5007432;28;20025;-73
2023/07/15 08:36:07;;;;;;;1.35;1.00;;;;;;;42.63;30.26;98121.31;5016474;28;20479;-72
2023/07/15 08:38:33;;;;;;;3.22;1.50;;;;;;;43.07;30.17;98124.94;5010151;28;20038;-73
2023/07/15 08:41:00;;;;;;;4.07;1.55;;;;;;;43.70;29.88;98116.25;5029347;28;20025;-73
2023/07/15 08:43:28;;;;;;;2.00;1.27;;;;;;;44.78;28.70;98122.06;5011168;28;20036;-73
2023/07/15 08:45:58;;;;;;;1.70;1.35;;;;;;;44.53;28.72;98129.25;5011893;28;20120;-74
2023/07/15 08:48:23;;;;;;;2.33;1.40;;;;;;;42.60;30.19;98120.16;5004685;28;20057;-75
2023/07/15 08:50:49;;;;;;;2.85;1.55;;;;;;;40.60;32.13;98129.50;5003919;28;20076;-73
2023/07/15 08:53:18;;;;;;;1.83;1.40;;;;;;;40.49;32.31;98114.63;5004510;28;20032;-74
2023/07/15 08:55:43;;;;;;;2.88;1.40;;;;;;;42.34;30.96;98121.88;5011866;28;20061;-74
2023/07/15 08:58:09;;;;;;;3.42;1.42;;;;;;;42.18;31.01;98125.34;5011016;28;20108;-74
2023/07/15 09:00:34;;;;;;;2.58;1.60;;;;;;;42.44;30.36;98126.53;5014986;28;20123;-73
2023/07/15 09:03:00;;;;;;;2.75;1.50;;;;;;;42.65;31.03;98116.00;5010004;28;20411;-73
2023/07/15 09:05:26;;;;;;;2.10;1.50;;;;;;;44.18;28.88;98111.84;5007513;28;20018;-75
2023/07/15 09:07:55;;;;;;;2.45;1.10;;;;;;;44.30;28.67;98104.59;5010522;28;20026;-74
2023/07/15 09:10:20;;;;;;;4.88;1.55;;;;;;;44.63;28.44;98099.63;5020566;28;20121;-74
2023/07/15 09:12:55;;;;;;;1.97;1.23;;;;;;;44.68;28.27;98108.91;5015553;28;20058;-74
2023/07/15 09:15:21;;;;;;;1.80;1.17;;;;;;;44.35;28.41;98106.09;5011645;28;20285;-74
2023/07/15 09:17:54;;;;;;;1.65;1.27;;;;;;;44.87;27.57;98101.47;5004284;28;20026;-74
2023/07/15 09:20:20;;;;;;;3.33;1.33;;;;;;;44.76;27.71;98099.72;5025006;28;20475;-74
2023/07/15 09:23:00;;;;;;;3.22;1.50;;;;;;;43.48;28.51;98098.84;5010363;28;20116;-74
2023/07/15 09:25:25;;;;;;;3.08;1.30;;;;;;;43.46;28.05;98100.53;5007447;28;20052;-74
2023/07/15 09:27:52;;;;;;;3.38;1.15;;;;;;;43.29;28.35;98091.94;5017197;28;20049;-74
2023/07/15 09:30:18;;;;;;;2.33;1.08;;;;;;;44.21;28.12;98086.53;5018402;28;20513;-74
2023/07/15 09:32:44;;;;;;;4.18;1.35;;;;;;;43.12;28.08;98093.13;5006906;28;20029;-74
2023/07/15 09:35:09;;;;;;;1.80;1.30;;;;;;;42.34;28.75;98090.59;5012023;28;20488;-74
2023/07/15 09:37:35;;;;;;;4.07;1.30;;;;;;;42.66;28.55;98101.34;5011410;28;20061;-74
2023/07/15 09:40:07;;;;;;;2.78;1.40;;;;;;;43.70;27.48;98090.59;5019867;28;20518;-74
2023/07/15 09:42:51;;;;;;;2.40;1.50;;;;;;;42.16;28.19;98095.75;5032329;28;20034;-74
2023/07/15 09:45:36;;;;;;;2.20;1.20;;;;;;;41.63;28.80;98103.91;5011691;28;20022;-74
2023/07/15 09:48:10;;;;;;;2.90;2.00;;;;;;;41.91;28.34;98110.38;5022951;28;20035;-74
2023/07/15 09:50:37;;;;;;;1.00;0.85;;;;;;;44.99;26.95;98101.50;5008451;28;20022;-74
2023/07/15 09:53:03;;;;;;;4.13;1.27;;;;;;;45.04;26.81;98112.34;5013382;28;20091;-75
2023/07/15 09:55:31;;;;;;;2.13;1.30;;;;;;;45.37;25.78;98111.41;5013679;28;20468;-74
2023/07/15 09:58:18;;;;;;;2.70;1.08;;;;;;;46.26;25.19;98107.72;5013618;28;20110;-74
2023/07/15 10:00:48;;;;;;;4.18;1.50;;;;;;;45.46;25.67;98102.94;5013509;28;20146;-74
2023/07/15 10:03:42;;;;;;;2.70;1.20;;;;;;;46.05;24.97;98118.63;5010628;28;20025;-74
2023/07/15 10:06:08;;;;;;;2.28;1.15;;;;;;;46.06;24.65;98107.97;5008706;28;20037;-74
2023/07/15 10:08:34;;;;;;;6.82;1.20;;;;;;;46.31;24.55;98105.09;5007996;28;20487;-74
2023/07/15 10:11:00;;;;;;;1.83;1.00;;;;;;;46.47;24.98;98106.19;5012286;28;20785;-75
2023/07/15 10:13:26;;;;;;;5.07;1.23;;;;;;;47.80;23.88;98101.97;5014013;28;20121;-75
2023/07/15 10:15:52;;;;;;;1.48;1.10;;;;;;;47.54;23.86;98093.59;5015812;28;20531;-79
2023/07/15 10:18:19;;;;;;;2.00;1.45;;;;;;;44.69;25.64;98090.53;5010159;28;20032;-79
2023/07/15 10:20:56;;;;;;;1.15;0.90;;;;;;;44.92;25.67;98083.78;5016050;28;20028;-75
2023/07/15 10:23:29;;;;;;;3.92;1.10;;;;;;;45.82;24.91;98082.59;5003681;28;20034;-75
2023/07/15 10:26:20;;;;;;;3.33;1.45;;;;;;;47.84;23.67;98082.56;5012683;28;20025;-76
2023/07/15 10:28:51;;;;;;;1.55;1.08;;;;;;;47.47;24.19;98073.81;5015728;28;20049;-76
2023/07/15 10:31:16;;;;;;;3.33;1.00;;;;;;;49.71;23.63;98075.75;5006085;28;20038;-76
2023/07/15 10:33:54;;;;;;;1.60;1.10;;;;;;;50.31;22.07;98073.13;5011763;28;20030;-76
2023/07/15 10:36:34;;;;;;;2.20;1.30;;;;;;;49.37;22.47;98056.88;5001782;28;20030;-75
2023/07/15 10:39:17;;;;;;;1.30;0.95;;;;;;;48.50;23.06;98059.22;5001904;28;20030;-75
2023/07/15 10:41:48;;;;;;;4.32;1.45;;;;;;;48.38;23.04;98055.25;5009286;28;20080;-75
2023/07/15 10:44:24;;;;;;;1.67;1.20;;;;;;;48.40;22.95;98054.78;5002943;28;20103;-74
2023/07/15 10:46:59;;;;;;;2.67;1.20;;;;;;;46.33;24.21;98050.28;5007989;28;20028;-75
2023/07/15 10:49:24;;;;;;;1.65;1.35;;;;;;;43.86;26.18;98049.94;5001279;28;20038;-74
2023/07/15 10:51:54;;;;;;;2.33;1.25;;;;;;;45.23;25.93;98049.81;5020822;28;20021;-74
2023/07/15 10:54:27;;;;;;;3.17;1.60;;;;;;;46.47;24.82;98046.88;5003815;28;20066;-77
2023/07/15 10:56:54;;;;;;;1.42;1.10;;;;;;;46.34;25.90;98044.09;5021704;28;20026;-76
2023/07/15 10:59:22;;;;;;;1.77;1.30;;;;;;;48.57;24.31;98040.91;5005280;28;20033;-77
2023/07/15 11:01:48;;;;;;;2.75;1.10;;;;;;;50.52;22.94;98051.88;5006176;28;20091;-76
2023/07/15 11:04:19;;;;;;;1.67;1.20;;;;;;;51.83;21.63;98039.22;5010934;28;20022;-77
2023/07/15 11:06:44;;;;;;;2.08;1.33;;;;;;;50.30;22.21;98037.00;5009447;28;20026;-77
2023/07/15 11:09:20;;;;;;;1.80;1.35;;;;;;;51.76;21.03;98036.75;5006130;28;20021;-77
2023/07/15 11:11:47;;;;;;;1.10;1.00;;;;;;;50.56;21.53;98043.03;5011959;28;20499;-76
2023/07/15 11:14:24;;;;;;;1.92;1.25;;;;;;;51.05;21.59;98030.91;5008315;28;20037;-76
2023/07/15 11:16:51;;;;;;;2.92;1.38;;;;;;;50.36;22.59;98041.63;5011699;28;20096;-76
2023/07/15 11:19:16;;;;;;;2.55;1.25;;;;;;;49.89;22.33;98034.59;5010558;28;20057;-76
2023/07/15 11:21:43;;;;;;;1.67;1.20;;;;;;;48.89;22.08;98034.50;5011371;28;20071;-76
2023/07/15 11:24:13;;;;;;;1.98;1.15;;;;;;;51.08;21.85;98029.09;5009021;28;20354;-76
2023/07/15 11:26:43;;;;;;;1.48;1.13;;;;;;;51.19;20.95;98019.84;4996818;28;20084;-76
2023/07/15 11:29:19;;;;;;;1.98;1.20;;;;;;;50.90;21.01;98024.31;5007602;28;20032;-76